Time;durP1;ratioP1;P1;durP2;ratioP2;P2;SDS_P1;SDS_P2;PMS_P1;PMS_P2;Temp;Humidity;BMP_temperature;BMP_pressure;BME280_temperature;BME280_humidity;BME280_pressure;Samples;Min_cycle;Max_cycle;Signal;HPM_P1;HPM_P2
2023/11/29 00:01:47;;;;;;;0.10;0.10;;;;;;;;;;5050801;28;20075;-87
2023/11/29 00:04:13;;;;;;;0.10;0.10;;;;;;;;;;5034452;28;20045;-86
2023/11/29 00:06:39;;;;;;;0.20;0.20;;;;;;;;;;5017606;28;20065;-87
2023/11/29 00:09:05;;;;;;;0.30;0.30;;;;;;;;;;5050621;28;20050;-87
2023/11/29 00:11:31;;;;;;;0.13;0.13;;;;;;;;;;5017490;28;20041;-87
2023/11/29 00:13:57;;;;;;;0.30;0.25;;;;;;;;;;5017641;28;20115;-87
2023/11/29 00:16:23;;;;;;;0.10;0.10;;;;;;;;;;5033895;28;20497;-86
2023/11/29 00:18:49;;;;;;;0.10;0.10;;;;;;;;;;5050554;28;20052;-87
2023/11/29 00:21:15;;;;;;;0.10;0.10;;;;;;;;;;5017446;28;20132;-87
2023/11/29 00:23:41;;;;;;;0.10;0.10;;;;;;;;;;5034053;28;20145;-87
2023/11/29 00:26:07;;;;;;;0.10;0.10;;;;;;;;;;5033798;28;20042;-87
2023/11/29 00:28:33;;;;;;;0.10;0.10;;;;;;;;;;5017474;28;20041;-85
2023/11/29 00:30:59;;;;;;;0.10;0.10;;;;;;;;;;5033606;28;20034;-85
2023/11/29 00:33:25;;;;;;;0.10;0.10;;;;;;;;;;5050375;28;20041;-86
2023/11/29 00:35:51;;;;;;;0.10;0.10;;;;;;;;;;5050248;28;20042;-85
2023/11/29 00:38:17;;;;;;;0.10;0.10;;;;;;;;;;5050443;28;20055;-86
2023/11/29 00:40:44;;;;;;;0.10;0.10;;;;;;;;;;5033621;28;20477;-87
2023/11/29 00:43:10;;;;;;;0.10;0.10;;;;;;;;;;5033601;28;20049;-87
2023/11/29 00:45:36;;;;;;;0.10;0.10;;;;;;;;;;5033472;28;20045;-87
2023/11/29 00:48:02;;;;;;;0.10;0.10;;;;;;;;;;5033437;28;20171;-87
2023/11/29 00:50:28;;;;;;;0.10;0.10;;;;;;;;;;5033350;28;20120;-86
2023/11/29 00:52:54;;;;;;;0.10;0.10;;;;;;;;;;5050087;28;20124;-86
2023/11/29 00:55:20;;;;;;;0.10;0.10;;;;;;;;;;5032807;28;20040;-86
2023/11/29 00:57:46;;;;;;;0.10;0.10;;;;;;;;;;5050319;28;20041;-85
2023/11/29 01:00:12;;;;;;;0.10;0.10;;;;;;;;;;5033229;28;20124;-86
2023/11/29 01:02:38;;;;;;;0.10;0.10;;;;;;;;;;5033470;28;20041;-85
2023/11/29 01:05:05;;;;;;;0.10;0.10;;;;;;;;;;5033152;28;20075;-86
2023/11/29 01:07:30;;;;;;;0.10;0.10;;;;;;;;;;5049686;28;20524;-87
2023/11/29 01:09:57;;;;;;;0.10;0.10;;;;;;;;;;5049553;28;20042;-86
2023/11/29 01:12:23;;;;;;;0.10;0.10;;;;;;;;;;5033056;28;20049;-86
2023/11/29 01:14:49;;;;;;;0.10;0.10;;;;;;;;;;5032898;28;20050;-86
2023/11/29 01:17:15;;;;;;;0.10;0.10;;;;;;;;;;5016575;28;20395;-86
2023/11/29 01:19:41;;;;;;;0.10;0.10;;;;;;;;;;5032928;28;20087;-85
2023/11/29 01:22:07;;;;;;;0.10;0.10;;;;;;;;;;5049396;28;20378;-86
2023/11/29 01:24:33;;;;;;;0.10;0.10;;;;;;;;;;5032801;28;20612;-87
2023/11/29 01:26:59;;;;;;;0.10;0.10;;;;;;;;;;5032767;28;20090;-88
2023/11/29 01:29:25;;;;;;;0.10;0.10;;;;;;;;;;5032489;28;20116;-87
2023/11/29 01:31:51;;;;;;;0.10;0.10;;;;;;;;;;5016510;28;20476;-87
2023/11/29 01:34:17;;;;;;;0.10;0.10;;;;;;;;;;5032794;28;20065;-86
2023/11/29 01:36:43;;;;;;;0.10;0.10;;;;;;;;;;5032536;28;20090;-86
2023/11/29 01:39:15;;;;;;;0.10;0.10;;;;;;;;;;5015978;28;20099;-87
2023/11/29 01:41:42;;;;;;;0.10;0.10;;;;;;;;;;5048992;28;20073;-86
2023/11/29 01:44:08;;;;;;;0.10;0.10;;;;;;;;;;5049030;28;20412;-87
2023/11/29 01:46:34;;;;;;;0.10;0.10;;;;;;;;;;5032433;28;20128;-86
2023/11/29 01:49:00;;;;;;;0.10;0.10;;;;;;;;;;5049097;28;20081;-86
2023/11/29 01:51:26;;;;;;;0.10;0.10;;;;;;;;;;5015694;28;20122;-86
2023/11/29 01:53:52;;;;;;;0.10;0.10;;;;;;;;;;5032257;28;20466;-87
2023/11/29 01:56:21;;;;;;;0.10;0.10;;;;;;;;;;5015672;28;20048;-86
2023/11/29 01:58:47;;;;;;;0.10;0.10;;;;;;;;;;5015775;28;20068;-87
2023/11/29 02:01:14;;;;;;;0.10;0.10;;;;;;;;;;5032004;28;20467;-86
2023/11/29 02:03:40;;;;;;;0.10;0.10;;;;;;;;;;5015816;28;20391;-87
2023/11/29 02:06:07;;;;;;;0.10;0.10;;;;;;;;;;5030970;28;20493;-87
2023/11/29 02:08:33;;;;;;;0.10;0.10;;;;;;;;;;5031914;28;20077;-87
2023/11/29 02:10:59;;;;;;;0.10;0.10;;;;;;;;;;5015310;28;20449;-87
2023/11/29 02:13:25;;;;;;;0.10;0.10;;;;;;;;;;5031818;28;20034;-86
2023/11/29 02:15:50;;;;;;;0.10;0.10;;;;;;;;;;5048569;28;20460;-87
2023/11/29 02:18:17;;;;;;;0.10;0.10;;;;;;;;;;5031907;28;20156;-86
2023/11/29 02:20:43;;;;;;;0.10;0.10;;;;;;;;;;5015220;28;20397;-87
2023/11/29 02:23:20;;;;;;;0.10;0.10;;;;;;;;;;5031652;28;20489;-85
2023/11/29 02:25:46;;;;;;;0.10;0.10;;;;;;;;;;5031632;28;20132;-87
2023/11/29 02:28:12;;;;;;;0.30;0.30;;;;;;;;;;5048254;28;20116;-87
2023/11/29 02:30:38;;;;;;;0.10;0.10;;;;;;;;;;5031341;28;20037;-86
2023/11/29 02:33:04;;;;;;;0.10;0.10;;;;;;;;;;5031508;28;20167;-85
2023/11/29 02:35:30;;;;;;;0.10;0.10;;;;;;;;;;5031541;28;20524;-86
2023/11/29 02:37:56;;;;;;;0.22;0.20;;;;;;;;;;5031377;28;20060;-85
2023/11/29 02:40:24;;;;;;;0.15;0.15;;;;;;;;;;5048064;28;20152;-87
2023/11/29 02:42:50;;;;;;;0.10;0.10;;;;;;;;;;5014926;28;20053;-87
2023/11/29 02:45:16;;;;;;;0.10;0.10;;;;;;;;;;5015055;28;20042;-89
2023/11/29 02:47:42;;;;;;;0.30;0.30;;;;;;;;;;5031240;28;20037;-87
2023/11/29 02:50:08;;;;;;;0.10;0.10;;;;;;;;;;5014679;28;20040;-86
2023/11/29 02:52:34;;;;;;;0.13;0.13;;;;;;;;;;5031043;28;20048;-87
2023/11/29 02:55:00;;;;;;;0.10;0.10;;;;;;;;;;5031405;28;20037;-87
2023/11/29 02:57:26;;;;;;;0.10;0.10;;;;;;;;;;5031144;28;20042;-87
2023/11/29 02:59:52;;;;;;;0.10;0.10;;;;;;;;;;5015060;28;20095;-86
2023/11/29 03:02:18;;;;;;;0.20;0.20;;;;;;;;;;5031117;28;20503;-87
2023/11/29 03:04:44;;;;;;;0.10;0.10;;;;;;;;;;5031333;28;20140;-87
2023/11/29 03:07:11;;;;;;;0.10;0.10;;;;;;;;;;5030733;28;20477;-87
2023/11/29 03:09:37;;;;;;;0.10;0.10;;;;;;;;;;5030898;28;20088;-86
2023/11/29 03:12:03;;;;;;;0.10;0.10;;;;;;;;;;5047571;28;20041;-86
2023/11/29 03:14:30;;;;;;;0.10;0.10;;;;;;;;;;5047745;28;20048;-86
2023/11/29 03:16:56;;;;;;;0.10;0.10;;;;;;;;;;5047262;28;20377;-86
2023/11/29 03:19:22;;;;;;;0.10;0.10;;;;;;;;;;5047696;28;20288;-87
2023/11/29 03:21:48;;;;;;;0.10;0.10;;;;;;;;;;5030765;28;20516;-87
2023/11/29 03:24:14;;;;;;;0.10;0.10;;;;;;;;;;5014536;28;20080;-87
2023/11/29 03:26:43;;;;;;;0.10;0.10;;;;;;;;;;5030824;28;20068;-87
2023/11/29 03:29:09;;;;;;;0.10;0.10;;;;;;;;;;5030829;28;20050;-88
2023/11/29 03:31:35;;;;;;;0.10;0.10;;;;;;;;;;5047427;28;20038;-88
2023/11/29 03:34:01;;;;;;;0.10;0.10;;;;;;;;;;5014168;28;20038;-88
2023/11/29 03:36:27;;;;;;;0.28;0.28;;;;;;;;;;5047379;28;20155;-87
2023/11/29 03:38:54;;;;;;;0.10;0.10;;;;;;;;;;5030728;28;20138;-87
2023/11/29 03:41:20;;;;;;;0.10;0.10;;;;;;;;;;5030473;28;20052;-88
2023/11/29 03:43:46;;;;;;;0.10;0.10;;;;;;;;;;5047346;28;20045;-87
2023/11/29 03:46:12;;;;;;;0.10;0.10;;;;;;;;;;5014174;28;20041;-88
2023/11/29 03:48:38;;;;;;;0.10;0.10;;;;;;;;;;5030514;28;20033;-87
2023/11/29 03:51:04;;;;;;;0.10;0.10;;;;;;;;;;5030505;28;20045;-88
2023/11/29 03:53:30;;;;;;;0.10;0.10;;;;;;;;;;5030525;28;20508;-87
2023/11/29 03:55:56;;;;;;;0.32;0.32;;;;;;;;;;5030712;28;20033;-88
2023/11/29 03:58:22;;;;;;;0.10;0.10;;;;;;;;;;5030494;28;20034;-88
2023/11/29 04:00:48;;;;;;;0.10;0.10;;;;;;;;;;5014358;28;20059;-89
2023/11/29 04:03:14;;;;;;;0.10;0.10;;;;;;;;;;5014070;28;20049;-89
2023/11/29 04:05:40;;;;;;;0.10;0.10;;;;;;;;;;5030166;28;20095;-87
2023/11/29 04:08:06;;;;;;;0.10;0.10;;;;;;;;;;5014305;28;20049;-87
2023/11/29 04:10:33;;;;;;;0.15;0.15;;;;;;;;;;5030312;28;20552;-87
2023/11/29 04:13:01;;;;;;;0.10;0.10;;;;;;;;;;5013975;28;20073;-87
2023/11/29 04:15:27;;;;;;;0.10;0.10;;;;;;;;;;5014190;28;20037;-87
2023/11/29 04:17:53;;;;;;;0.15;0.15;;;;;;;;;;5013850;28;20111;-86
2023/11/29 04:20:19;;;;;;;0.10;0.10;;;;;;;;;;5046819;28;20096;-87
2023/11/29 04:22:48;;;;;;;0.10;0.10;;;;;;;;;;5046919;28;20483;-88
2023/11/29 04:25:14;;;;;;;0.10;0.10;;;;;;;;;;5030414;28;20108;-87
2023/11/29 04:27:41;;;;;;;0.10;0.10;;;;;;;;;;5030310;28;20038;-87
2023/11/29 04:30:07;;;;;;;0.10;0.10;;;;;;;;;;5049154;28;20077;-86
2023/11/29 04:32:33;;;;;;;0.10;0.10;;;;;;;;;;5017286;28;20043;-86
2023/11/29 04:34:59;;;;;;;0.10;0.10;;;;;;;;;;5050466;28;20117;-86
2023/11/29 04:37:25;;;;;;;0.10;0.10;;;;;;;;;;5033878;28;20033;-86
2023/11/29 04:39:51;;;;;;;0.10;0.10;;;;;;;;;;5017339;28;20106;-86
2023/11/29 04:42:17;;;;;;;0.10;0.10;;;;;;;;;;5033638;28;20076;-86
2023/11/29 04:44:43;;;;;;;0.10;0.10;;;;;;;;;;5017103;28;20049;-87
2023/11/29 04:47:09;;;;;;;0.45;0.45;;;;;;;;;;5033363;28;20050;-85
2023/11/29 04:49:35;;;;;;;0.10;0.10;;;;;;;;;;5049939;28;20056;-86
2023/11/29 04:52:01;;;;;;;0.10;0.10;;;;;;;;;;5050129;28;20047;-86
2023/11/29 04:54:27;;;;;;;0.10;0.10;;;;;;;;;;5033526;28;20041;-86
2023/11/29 04:56:53;;;;;;;0.10;0.10;;;;;;;;;;5033335;28;20075;-86
2023/11/29 04:59:19;;;;;;;0.10;0.10;;;;;;;;;;5033258;28;20049;-86
2023/11/29 05:01:45;;;;;;;0.10;0.10;;;;;;;;;;5016957;28;20520;-86
2023/11/29 05:04:12;;;;;;;0.10;0.10;;;;;;;;;;5016782;28;20075;-87
2023/11/29 05:06:37;;;;;;;0.10;0.10;;;;;;;;;;5049561;28;20086;-87
2023/11/29 05:09:06;;;;;;;0.10;0.10;;;;;;;;;;5033301;28;20131;-86
2023/11/29 05:11:32;;;;;;;0.10;0.10;;;;;;;;;;5016446;28;20473;-86
2023/11/29 05:13:58;;;;;;;0.10;0.10;;;;;;;;;;5033084;28;20496;-86
2023/11/29 05:16:24;;;;;;;0.10;0.10;;;;;;;;;;5032808;28;20042;-86
2023/11/29 05:18:50;;;;;;;0.10;0.10;;;;;;;;;;5016443;28;20037;-86
2023/11/29 05:21:17;;;;;;;0.10;0.10;;;;;;;;;;5049299;28;20049;-86
2023/11/29 05:23:43;;;;;;;0.10;0.10;;;;;;;;;;5016394;28;20128;-86
2023/11/29 05:26:09;;;;;;;0.30;0.25;;;;;;;;;;5016273;28;20076;-86
2023/11/29 05:28:35;;;;;;;0.10;0.10;;;;;;;;;;5032883;28;20100;-85
2023/11/29 05:31:01;;;;;;;0.10;0.10;;;;;;;;;;5016149;28;20038;-86
2023/11/29 05:33:29;;;;;;;0.10;0.10;;;;;;;;;;5032630;28;20112;-86
2023/11/29 05:35:56;;;;;;;0.10;0.10;;;;;;;;;;5049119;28;20041;-87
2023/11/29 05:38:23;;;;;;;0.10;0.10;;;;;;;;;;5049094;28;20076;-86
2023/11/29 05:40:49;;;;;;;0.10;0.10;;;;;;;;;;5032352;28;20107;-86
2023/11/29 05:43:15;;;;;;;0.10;0.10;;;;;;;;;;5016027;28;20049;-86
2023/11/29 05:45:41;;;;;;;0.10;0.10;;;;;;;;;;5032368;28;20091;-87
2023/11/29 05:48:07;;;;;;;0.10;0.10;;;;;;;;;;5032699;28;20060;-87
2023/11/29 05:50:35;;;;;;;0.10;0.10;;;;;;;;;;5032382;28;20041;-86
2023/11/29 05:53:01;;;;;;;0.10;0.10;;;;;;;;;;5015856;28;20098;-87
2023/11/29 05:55:27;;;;;;;0.10;0.10;;;;;;;;;;5032216;28;20072;-87
2023/11/29 05:57:53;;;;;;;0.10;0.10;;;;;;;;;;5048723;28;20042;-87
2023/11/29 06:00:19;;;;;;;0.10;0.10;;;;;;;;;;5032334;28;20037;-86
2023/11/29 06:02:47;;;;;;;0.10;0.10;;;;;;;;;;5032206;28;20124;-87
2023/11/29 06:05:13;;;;;;;0.10;0.10;;;;;;;;;;5032026;28;20042;-86
2023/11/29 06:07:39;;;;;;;0.10;0.10;;;;;;;;;;5031919;28;20060;-87
2023/11/29 06:10:05;;;;;;;0.10;0.10;;;;;;;;;;5031960;28;20048;-87
2023/11/29 06:12:33;;;;;;;0.20;0.20;;;;;;;;;;5032011;28;20117;-86
2023/11/29 06:14:59;;;;;;;0.20;0.20;;;;;;;;;;5015341;28;20041;-87
2023/11/29 06:17:25;;;;;;;0.10;0.10;;;;;;;;;;5048550;28;20042;-87
2023/11/29 06:19:51;;;;;;;0.10;0.10;;;;;;;;;;5031713;28;20118;-87
2023/11/29 06:22:17;;;;;;;0.10;0.10;;;;;;;;;;5031739;28;20438;-87
2023/11/29 06:24:43;;;;;;;0.10;0.10;;;;;;;;;;5015474;28;20396;-87
2023/11/29 06:27:09;;;;;;;0.10;0.10;;;;;;;;;;5015135;28;20041;-87
2023/11/29 06:29:35;;;;;;;0.10;0.10;;;;;;;;;;5015200;28;20048;-87
2023/11/29 06:32:01;;;;;;;0.10;0.10;;;;;;;;;;5031956;28;20049;-87
2023/11/29 06:34:27;;;;;;;0.10;0.10;;;;;;;;;;5031596;28;20049;-85
2023/11/29 06:36:53;;;;;;;0.10;0.10;;;;;;;;;;5031493;28;20049;-86
2023/11/29 06:39:20;;;;;;;0.10;0.10;;;;;;;;;;5031375;28;20061;-87
2023/11/29 06:41:47;;;;;;;0.10;0.10;;;;;;;;;;5014803;28;20033;-86
2023/11/29 06:44:14;;;;;;;0.10;0.10;;;;;;;;;;5015316;28;20481;-88
2023/11/29 06:46:40;;;;;;;0.30;0.30;;;;;;;;;;5047893;28;20493;-88
2023/11/29 06:49:07;;;;;;;0.10;0.10;;;;;;;;;;5031647;28;20492;-87
2023/11/29 06:51:33;;;;;;;0.63;0.63;;;;;;;;;;5030910;28;20037;-86
2023/11/29 06:53:59;;;;;;;0.20;0.20;;;;;;;;;;5031439;28;20389;-87
2023/11/29 06:56:25;;;;;;;0.10;0.10;;;;;;;;;;5030976;28;20038;-87
2023/11/29 06:58:51;;;;;;;0.20;0.20;;;;;;;;;;5014746;28;20049;-88
2023/11/29 07:01:17;;;;;;;0.93;0.30;;;;;;;;;;5030948;28;20045;-87
2023/11/29 07:03:43;;;;;;;0.10;0.10;;;;;;;;;;5014662;28;20328;-86
2023/11/29 07:06:11;;;;;;;0.20;0.20;;;;;;;;;;5030881;28;20111;-87
2023/11/29 07:08:37;;;;;;;0.10;0.10;;;;;;;;;;5014446;28;20053;-87
2023/11/29 07:11:04;;;;;;;0.10;0.10;;;;;;;;;;5047436;28;20519;-87
2023/11/29 07:13:31;;;;;;;0.32;0.32;;;;;;;;;;5014533;28;20477;-88
2023/11/29 07:15:57;;;;;;;0.20;0.20;;;;;;;;;;5047723;28;20354;-86
2023/11/29 07:18:25;;;;;;;0.25;0.25;;;;;;;;;;5031385;28;20155;-95
2023/11/29 07:20:51;;;;;;;0.10;0.10;;;;;;;;;;5015752;28;20042;-94
2023/11/29 07:23:17;;;;;;;0.10;0.10;;;;;;;;;;5014373;28;20045;-87
2023/11/29 07:25:43;;;;;;;0.10;0.10;;;;;;;;;;5030738;28;20635;-87
2023/11/29 07:28:09;;;;;;;0.10;0.10;;;;;;;;;;5014472;28;20148;-87
2023/11/29 07:30:35;;;;;;;0.10;0.10;;;;;;;;;;5047352;28;20439;-87
2023/11/29 07:33:01;;;;;;;0.20;0.20;;;;;;;;;;5047620;28;20077;-88
2023/11/29 07:35:27;;;;;;;0.13;0.13;;;;;;;;;;5030784;28;20562;-89
2023/11/29 07:37:53;;;;;;;0.10;0.10;;;;;;;;;;5031007;28;20130;-89
2023/11/29 07:40:22;;;;;;;0.10;0.10;;;;;;;;;;5030638;28;20077;-88
2023/11/29 07:42:48;;;;;;;0.10;0.10;;;;;;;;;;5030659;28;20045;-88
2023/11/29 07:45:15;;;;;;;0.10;0.10;;;;;;;;;;5031021;28;20050;-89
2023/11/29 07:47:41;;;;;;;0.52;0.40;;;;;;;;;;5014837;28;20048;-88
2023/11/29 07:50:07;;;;;;;0.13;0.13;;;;;;;;;;5014144;28;20132;-87
2023/11/29 07:52:35;;;;;;;0.10;0.10;;;;;;;;;;5030551;28;20041;-89
2023/11/29 07:55:02;;;;;;;0.10;0.10;;;;;;;;;;5030713;28;20099;-88
2023/11/29 07:57:28;;;;;;;0.10;0.10;;;;;;;;;;5030611;28;20041;-88
2023/11/29 07:59:54;;;;;;;0.20;0.20;;;;;;;;;;5014563;28;20055;-87
2023/11/29 08:02:20;;;;;;;0.10;0.10;;;;;;;;;;5027179;28;20048;-90
2023/11/29 08:04:46;;;;;;;0.20;0.20;;;;;;;;;;5016475;28;20091;-89
2023/11/29 08:07:12;;;;;;;0.25;0.25;;;;;;;;;;5017503;28;20057;-87
2023/11/29 08:09:38;;;;;;;0.15;0.15;;;;;;;;;;5035428;28;20052;-89
2023/11/29 08:12:04;;;;;;;0.10;0.10;;;;;;;;;;5024335;28;20045;-89
2023/11/29 08:14:32;;;;;;;0.22;0.22;;;;;;;;;;5020360;28;20048;-89
2023/11/29 08:16:58;;;;;;;0.40;0.40;;;;;;;;;;5017922;28;20397;-89
2023/11/29 08:19:25;;;;;;;0.20;0.20;;;;;;;;;;5034109;28;20485;-87
2023/11/29 08:21:51;;;;;;;0.10;0.10;;;;;;;;;;5050581;28;20041;-88
2023/11/29 08:24:17;;;;;;;0.10;0.10;;;;;;;;;;5050783;28;20444;-87
2023/11/29 08:26:43;;;;;;;0.50;0.50;;;;;;;;;;5055843;28;20063;-88
2023/11/29 08:29:09;;;;;;;0.10;0.10;;;;;;;;;;5020932;28;20053;-87
2023/11/29 08:31:35;;;;;;;0.10;0.10;;;;;;;;;;5037314;28;20590;-89
2023/11/29 08:34:01;;;;;;;0.10;0.10;;;;;;;;;;5037470;28;20048;-87
2023/11/29 08:36:29;;;;;;;0.10;0.10;;;;;;;;;;5037015;28;20169;-87
2023/11/29 08:38:55;;;;;;;1.75;0.20;;;;;;;;;;5021151;28;20373;-88
2023/11/29 08:41:21;;;;;;;0.10;0.10;;;;;;;;;;5036658;28;20052;-87
2023/11/29 08:43:47;;;;;;;0.10;0.10;;;;;;;;;;5036968;28;20047;-88
2023/11/29 08:46:14;;;;;;;0.10;0.10;;;;;;;;;;5036984;28;20044;-87
2023/11/29 08:48:42;;;;;;;0.10;0.10;;;;;;;;;;5036721;28;20037;-87
2023/11/29 08:51:08;;;;;;;0.10;0.10;;;;;;;;;;5053291;28;20041;-88
2023/11/29 08:53:35;;;;;;;0.10;0.10;;;;;;;;;;5020681;28;20041;-88
2023/11/29 08:56:02;;;;;;;0.10;0.10;;;;;;;;;;5036818;28;20091;-88
2023/11/29 08:58:28;;;;;;;0.10;0.10;;;;;;;;;;5037128;28;20486;-88
2023/11/29 09:00:54;;;;;;;0.10;0.10;;;;;;;;;;5020142;28;20189;-88
2023/11/29 09:03:21;;;;;;;0.10;0.10;;;;;;;;;;5020344;28;20278;-88
2023/11/29 09:05:47;;;;;;;0.10;0.10;;;;;;;;;;5019899;28;20084;-88
2023/11/29 09:08:13;;;;;;;0.10;0.10;;;;;;;;;;5020556;28;20076;-88
2023/11/29 09:10:39;;;;;;;0.10;0.10;;;;;;;;;;5020188;28;20431;-88
2023/11/29 09:13:08;;;;;;;0.10;0.10;;;;;;;;;;5036714;28;20041;-88
2023/11/29 09:15:34;;;;;;;0.10;0.10;;;;;;;;;;5020166;28;20404;-88
2023/11/29 09:18:03;;;;;;;0.10;0.10;;;;;;;;;;5052756;28;20435;-88
2023/11/29 09:20:30;;;;;;;0.10;0.10;;;;;;;;;;5036456;28;20073;-93
2023/11/29 09:22:56;;;;;;;0.10;0.10;;;;;;;;;;5036451;28;20040;-90
2023/11/29 09:25:22;;;;;;;0.10;0.10;;;;;;;;;;5036647;28;20178;-92
2023/11/29 09:27:49;;;;;;;0.10;0.10;;;;;;;;;;5036379;28;20045;-88
2023/11/29 09:30:15;;;;;;;0.10;0.10;;;;;;;;;;5035764;28;20511;-89
2023/11/29 09:32:41;;;;;;;0.10;0.10;;;;;;;;;;5019902;28;20033;-89
2023/11/29 09:35:07;;;;;;;0.10;0.10;;;;;;;;;;5036141;28;20044;-89
2023/11/29 09:37:34;;;;;;;0.10;0.10;;;;;;;;;;5019087;28;20045;-89
2023/11/29 09:40:00;;;;;;;0.20;0.20;;;;;;;;;;5036208;28;20523;-86
2023/11/29 09:42:27;;;;;;;0.32;0.32;;;;;;;;;;5036239;28;20051;-86
2023/11/29 09:44:53;;;;;;;0.10;0.10;;;;;;;;;;5034475;28;20048;-87
2023/11/29 09:47:23;;;;;;;0.10;0.10;;;;;;;;;;5031523;28;20052;-87
2023/11/29 09:49:50;;;;;;;0.10;0.10;;;;;;;;;;5015666;28;20049;-87
2023/11/29 09:52:16;;;;;;;0.20;0.20;;;;;;;;;;5032964;28;20384;-87
2023/11/29 09:54:42;;;;;;;0.17;0.17;;;;;;;;;;5032127;28;20121;-88
2023/11/29 09:57:08;;;;;;;0.10;0.10;;;;;;;;;;5015606;28;20040;-87
2023/11/29 09:59:34;;;;;;;0.30;0.30;;;;;;;;;;5049758;28;20041;-93
2023/11/29 10:02:05;;;;;;;0.10;0.10;;;;;;;;;;5016637;28;20187;-88
2023/11/29 10:04:31;;;;;;;0.10;0.10;;;;;;;;;;5015830;28;20087;-89
2023/11/29 10:07:00;;;;;;;0.10;0.10;;;;;;;;;;5031835;28;20066;-88
2023/11/29 10:09:27;;;;;;;0.15;0.15;;;;;;;;;;5048354;28;20135;-88
2023/11/29 10:11:53;;;;;;;0.45;0.45;;;;;;;;;;5031864;28;20499;-88
2023/11/29 10:14:20;;;;;;;0.15;0.15;;;;;;;;;;5032233;28;20314;-88
2023/11/29 10:16:48;;;;;;;0.25;0.25;;;;;;;;;;5015709;28;20041;-88
2023/11/29 10:19:16;;;;;;;0.10;0.10;;;;;;;;;;5015748;28;20075;-86
2023/11/29 10:21:43;;;;;;;0.10;0.10;;;;;;;;;;5031737;28;20096;-89
2023/11/29 10:24:10;;;;;;;0.10;0.10;;;;;;;;;;5032218;28;20441;-93
2023/11/29 10:26:36;;;;;;;0.10;0.10;;;;;;;;;;5016169;28;20041;-89
2023/11/29 10:29:02;;;;;;;0.10;0.10;;;;;;;;;;5014163;28;20076;-88
2023/11/29 10:31:28;;;;;;;0.10;0.10;;;;;;;;;;5015076;28;20038;-87
2023/11/29 10:33:54;;;;;;;0.10;0.10;;;;;;;;;;5031827;28;20041;-88
2023/11/29 10:36:20;;;;;;;0.20;0.20;;;;;;;;;;5015245;28;20507;-89
2023/11/29 10:38:56;;;;;;;0.10;0.10;;;;;;;;;;5031725;28;20037;-89
2023/11/29 10:41:23;;;;;;;0.10;0.10;;;;;;;;;;5014830;28;20038;-89
2023/11/29 10:43:49;;;;;;;0.10;0.10;;;;;;;;;;5015079;28;20505;-88
2023/11/29 10:46:24;;;;;;;0.20;0.20;;;;;;;;;;5031479;28;20073;-89
2023/11/29 10:48:52;;;;;;;0.20;0.20;;;;;;;;;;5048016;28;20067;-89
2023/11/29 10:51:18;;;;;;;0.10;0.10;;;;;;;;;;5031239;28;20048;-89
2023/11/29 10:53:45;;;;;;;0.10;0.10;;;;;;;;;;5015021;28;20038;-89
2023/11/29 10:56:11;;;;;;;0.10;0.10;;;;;;;;;;5031299;28;20060;-89
2023/11/29 10:58:58;;;;;;;0.10;0.10;;;;;;;;;;5015520;28;20038;-87
2023/11/29 11:01:32;;;;;;;0.10;0.10;;;;;;;;;;5014387;28;20493;-88
2023/11/29 11:03:59;;;;;;;0.10;0.10;;;;;;;;;;5022622;28;20481;-87
2023/11/29 11:06:26;;;;;;;0.10;0.10;;;;;;;;;;5029860;28;20523;-87
2023/11/29 11:08:53;;;;;;;0.10;0.10;;;;;;;;;;5047436;28;20091;-88
2023/11/29 11:11:37;;;;;;;0.15;0.15;;;;;;;;;;5031055;28;20113;-88
2023/11/29 11:14:04;;;;;;;0.10;0.10;;;;;;;;;;5048816;28;20052;-88
2023/11/29 11:16:30;;;;;;;0.10;0.10;;;;;;;;;;5014601;28;20084;-88
2023/11/29 11:18:56;;;;;;;0.10;0.10;;;;;;;;;;5030842;28;20034;-88
2023/11/29 11:21:30;;;;;;;0.10;0.10;;;;;;;;;;5030667;28;20037;-87
2023/11/29 11:23:59;;;;;;;0.20;0.20;;;;;;;;;;5014805;28;20172;-89
2023/11/29 11:26:25;;;;;;;0.10;0.10;;;;;;;;;;5014363;28;20073;-88
2023/11/29 11:28:51;;;;;;;0.10;0.10;;;;;;;;;;5014401;28;20393;-88
2023/11/29 11:31:17;;;;;;;0.10;0.10;;;;;;;;;;5030841;28;20034;-88
2023/11/29 11:33:53;;;;;;;0.10;0.10;;;;;;;;;;5029965;28;20033;-88
2023/11/29 11:36:19;;;;;;;0.10;0.10;;;;;;;;;;5031049;28;20054;-89
2023/11/29 11:38:45;;;;;;;0.10;0.10;;;;;;;;;;5031814;28;20140;-88
2023/11/29 11:41:11;;;;;;;0.10;0.10;;;;;;;;;;5050747;28;20210;-87
2023/11/29 11:43:37;;;;;;;0.10;0.10;;;;;;;;;;5017968;28;20095;-88
2023/11/29 11:46:03;;;;;;;0.20;0.20;;;;;;;;;;5035299;28;20041;-92
2023/11/29 11:48:31;;;;;;;0.10;0.10;;;;;;;;;;5007759;28;20473;-90
2023/11/29 11:50:57;;;;;;;0.10;0.10;;;;;;;;;;5003374;28;20129;-91
2023/11/29 11:53:23;;;;;;;0.10;0.10;;;;;;;;;;5002596;28;20076;-90
2023/11/29 11:55:51;;;;;;;0.38;0.38;;;;;;;;;;5002773;28;20044;-91
2023/11/29 11:58:18;;;;;;;0.20;0.20;;;;;;;;;;5002668;28;20388;-91
2023/11/29 12:00:44;;;;;;;0.10;0.10;;;;;;;;;;5002396;28;20554;-91
2023/11/29 12:03:10;;;;;;;0.13;0.13;;;;;;;;;;5034304;28;20120;-89
2023/11/29 12:05:36;;;;;;;0.10;0.10;;;;;;;;;;5017917;28;20132;-89
2023/11/29 12:08:02;;;;;;;0.10;0.10;;;;;;;;;;5017963;28;20430;-89
2023/11/29 12:10:30;;;;;;;0.10;0.10;;;;;;;;;;5017637;28;20053;-89
2023/11/29 12:12:56;;;;;;;0.10;0.10;;;;;;;;;;5017864;28;20044;-89
2023/11/29 12:15:23;;;;;;;0.10;0.10;;;;;;;;;;5034416;28;20038;-89
2023/11/29 12:17:49;;;;;;;0.10;0.10;;;;;;;;;;5034701;28;20049;-89
2023/11/29 12:20:16;;;;;;;0.10;0.10;;;;;;;;;;5017695;28;20041;-89
2023/11/29 12:22:44;;;;;;;0.25;0.25;;;;;;;;;;5017957;28;20045;-89
2023/11/29 12:25:14;;;;;;;0.17;0.17;;;;;;;;;;5018033;28;20084;-89
2023/11/29 12:27:40;;;;;;;0.20;0.20;;;;;;;;;;5017441;28;20052;-89
2023/11/29 12:30:11;;;;;;;0.10;0.10;;;;;;;;;;5033947;28;20045;-89
2023/11/29 12:32:37;;;;;;;0.10;0.10;;;;;;;;;;5033928;28;20397;-89
2023/11/29 12:35:04;;;;;;;0.10;0.10;;;;;;;;;;5033850;28;20472;-89
2023/11/29 12:37:30;;;;;;;0.20;0.20;;;;;;;;;;5017489;28;20067;-89
2023/11/29 12:39:56;;;;;;;0.10;0.10;;;;;;;;;;5033879;28;20037;-90
2023/11/29 12:42:23;;;;;;;0.10;0.10;;;;;;;;;;5033974;28;20049;-89
2023/11/29 12:44:50;;;;;;;0.10;0.10;;;;;;;;;;5017508;28;20041;-89
2023/11/29 12:47:19;;;;;;;0.10;0.10;;;;;;;;;;5017444;28;20057;-89
2023/11/29 12:49:45;;;;;;;0.10;0.10;;;;;;;;;;5032972;28;20366;-88
2023/11/29 12:52:11;;;;;;;0.10;0.10;;;;;;;;;;5016969;28;20095;-86
2023/11/29 12:54:37;;;;;;;0.10;0.10;;;;;;;;;;5033236;28;20087;-90
2023/11/29 12:57:03;;;;;;;0.10;0.10;;;;;;;;;;5017094;28;20041;-87
2023/11/29 12:59:29;;;;;;;0.10;0.10;;;;;;;;;;5033201;28;20045;-87
2023/11/29 13:01:56;;;;;;;0.10;0.10;;;;;;;;;;5033238;28;20402;-87
2023/11/29 13:04:22;;;;;;;0.10;0.10;;;;;;;;;;5033332;28;20111;-88
2023/11/29 13:06:48;;;;;;;0.10;0.10;;;;;;;;;;5017376;28;20065;-95
2023/11/29 13:09:15;;;;;;;0.10;0.10;;;;;;;;;;5021169;28;20046;-93
2023/11/29 13:11:45;;;;;;;0.10;0.10;;;;;;;;;;5017378;28;20244;-94
2023/11/29 13:14:11;;;;;;;0.20;0.20;;;;;;;;;;5017313;28;20707;-89
2023/11/29 13:16:37;;;;;;;0.25;0.25;;;;;;;;;;5016945;28;20209;-86
2023/11/29 13:19:03;;;;;;;0.10;0.10;;;;;;;;;;5033038;28;20043;-87
2023/11/29 13:21:32;;;;;;;0.20;0.20;;;;;;;;;;5033058;28;20084;-86
2023/11/29 13:23:59;;;;;;;0.10;0.10;;;;;;;;;;5017072;28;20060;-86
2023/11/29 13:26:26;;;;;;;0.40;0.40;;;;;;;;;;5032997;28;20180;-87
2023/11/29 13:28:52;;;;;;;0.10;0.10;;;;;;;;;;5015801;28;20087;-86
2023/11/29 13:31:18;;;;;;;0.10;0.10;;;;;;;;;;5049332;28;20278;-86
2023/11/29 13:33:44;;;;;;;0.10;0.10;;;;;;;;;;5016082;28;20037;-86
2023/11/29 13:36:11;;;;;;;0.10;0.10;;;;;;;;;;5032431;28;20052;-87
2023/11/29 13:38:37;;;;;;;0.10;0.10;;;;;;;;;;5032574;28;20042;-88
2023/11/29 13:41:03;;;;;;;0.10;0.10;;;;;;;;;;5015942;28;20042;-88
2023/11/29 13:43:29;;;;;;;0.10;0.10;;;;;;;;;;5049248;28;20051;-87
2023/11/29 13:45:56;;;;;;;0.10;0.10;;;;;;;;;;5016140;28;20096;-88
2023/11/29 13:48:22;;;;;;;0.10;0.10;;;;;;;;;;5016080;28;20042;-88
2023/11/29 13:50:48;;;;;;;0.10;0.10;;;;;;;;;;5015941;28;20041;-88
2023/11/29 13:53:14;;;;;;;0.10;0.10;;;;;;;;;;5032483;28;20519;-88
2023/11/29 13:55:40;;;;;;;0.20;0.20;;;;;;;;;;5016167;28;20041;-88
2023/11/29 13:58:06;;;;;;;0.10;0.10;;;;;;;;;;5032438;28;20389;-89
2023/11/29 14:00:33;;;;;;;0.10;0.10;;;;;;;;;;5015803;28;20099;-88
2023/11/29 14:02:59;;;;;;;0.10;0.10;;;;;;;;;;5047839;28;20124;-88
2023/11/29 14:05:25;;;;;;;0.10;0.10;;;;;;;;;;5049363;28;20132;-89
2023/11/29 14:07:51;;;;;;;0.10;0.10;;;;;;;;;;5034950;28;20497;-87
2023/11/29 14:10:17;;;;;;;0.10;0.10;;;;;;;;;;5032001;28;20054;-88
2023/11/29 14:12:44;;;;;;;0.10;0.10;;;;;;;;;;5048997;28;20071;-89
2023/11/29 14:15:12;;;;;;;0.10;0.10;;;;;;;;;;5015651;28;20041;-88
2023/11/29 14:17:38;;;;;;;0.10;0.10;;;;;;;;;;5048974;28;20045;-88
2023/11/29 14:20:08;;;;;;;0.10;0.10;;;;;;;;;;5031919;28;20508;-88
2023/11/29 14:22:34;;;;;;;0.10;0.10;;;;;;;;;;5015556;28;20045;-88
2023/11/29 14:25:00;;;;;;;0.17;0.17;;;;;;;;;;5031936;28;20045;-88
2023/11/29 14:27:26;;;;;;;0.10;0.10;;;;;;;;;;5048521;28;20041;-88
2023/11/29 14:29:52;;;;;;;0.10;0.10;;;;;;;;;;5031815;28;20046;-89
2023/11/29 14:32:18;;;;;;;0.10;0.10;;;;;;;;;;5048476;28;20542;-88
2023/11/29 14:34:44;;;;;;;0.10;0.10;;;;;;;;;;5015447;28;20079;-89
2023/11/29 14:37:11;;;;;;;0.10;0.10;;;;;;;;;;5031644;28;20453;-88
2023/11/29 14:39:37;;;;;;;0.10;0.10;;;;;;;;;;5048500;28;20048;-88